sensor_id;sensor_type;location;lat;lon;timestamp;P1;durP1;ratioP1;P2;durP2;ratioP2
64684;SDS011;51109;47.414;18.954;2023-05-07T00:00:38;7.82;;;6.07;;
64684;SDS011;51109;47.414;18.954;2023-05-07T00:03:05;7.82;;;5.95;;
64684;SDS011;51109;47.414;18.954;2023-05-07T00:05:31;6.95;;;6.22;;
64684;SDS011;51109;47.414;18.954;2023-05-07T00:07:57;6.35;;;5.63;;
64684;SDS011;51109;47.414;18.954;2023-05-07T00:10:23;5.88;;;5.32;;
64684;SDS011;51109;47.414;18.954;2023-05-07T00:12:51;6.22;;;5.72;;
64684;SDS011;51109;47.414;18.954;2023-05-07T00:15:17;7.07;;;5.63;;
64684;SDS011;51109;47.414;18.954;2023-05-07T00:17:43;5.93;;;5.32;;
64684;SDS011;51109;47.414;18.954;2023-05-07T00:20:09;7.00;;;5.97;;
64684;SDS011;51109;47.414;18.954;2023-05-07T00:22:35;6.50;;;5.68;;
64684;SDS011;51109;47.414;18.954;2023-05-07T00:25:01;7.10;;;5.43;;
64684;SDS011;51109;47.414;18.954;2023-05-07T00:27:27;6.00;;;5.32;;
64684;SDS011;51109;47.414;18.954;2023-05-07T00:29:53;6.85;;;5.53;;
64684;SDS011;51109;47.414;18.954;2023-05-07T00:32:18;7.28;;;5.95;;
64684;SDS011;51109;47.414;18.954;2023-05-07T00:34:44;6.43;;;5.55;;
64684;SDS011;51109;47.414;18.954;2023-05-07T00:37:10;10.25;;;5.43;;
64684;SDS011;51109;47.414;18.954;2023-05-07T00:39:37;9.88;;;5.95;;
64684;SDS011;51109;47.414;18.954;2023-05-07T00:42:03;7.07;;;5.45;;
64684;SDS011;51109;47.414;18.954;2023-05-07T00:44:29;10.75;;;6.20;;
64684;SDS011;51109;47.414;18.954;2023-05-07T00:46:55;9.27;;;6.85;;
64684;SDS011;51109;47.414;18.954;2023-05-07T00:49:25;8.93;;;7.93;;
64684;SDS011;51109;47.414;18.954;2023-05-07T00:52:02;11.75;;;8.00;;
64684;SDS011;51109;47.414;18.954;2023-05-07T00:54:28;8.40;;;7.60;;
64684;SDS011;51109;47.414;18.954;2023-05-07T00:56:54;8.70;;;7.80;;
64684;SDS011;51109;47.414;18.954;2023-05-07T00:59:21;7.85;;;7.05;;
64684;SDS011;51109;47.414;18.954;2023-05-07T01:01:47;7.82;;;7.13;;
64684;SDS011;51109;47.414;18.954;2023-05-07T01:04:13;8.13;;;7.32;;
64684;SDS011;51109;47.414;18.954;2023-05-07T01:06:39;10.23;;;7.25;;
64684;SDS011;51109;47.414;18.954;2023-05-07T01:09:06;10.77;;;8.15;;
64684;SDS011;51109;47.414;18.954;2023-05-07T01:11:32;9.32;;;7.85;;
64684;SDS011;51109;47.414;18.954;2023-05-07T01:13:58;10.93;;;7.47;;
64684;SDS011;51109;47.414;18.954;2023-05-07T01:16:25;8.98;;;7.32;;
64684;SDS011;51109;47.414;18.954;2023-05-07T01:18:52;8.43;;;7.60;;
64684;SDS011;51109;47.414;18.954;2023-05-07T01:21:18;9.25;;;7.38;;
64684;SDS011;51109;47.414;18.954;2023-05-07T01:23:48;11.20;;;8.45;;
64684;SDS011;51109;47.414;18.954;2023-05-07T01:26:14;10.55;;;8.30;;
64684;SDS011;51109;47.414;18.954;2023-05-07T01:28:41;9.50;;;8.50;;
64684;SDS011;51109;47.414;18.954;2023-05-07T01:31:07;9.90;;;8.90;;
64684;SDS011;51109;47.414;18.954;2023-05-07T01:33:34;11.10;;;9.90;;
64684;SDS011;51109;47.414;18.954;2023-05-07T01:36:01;11.00;;;9.30;;
64684;SDS011;51109;47.414;18.954;2023-05-07T01:38:31;9.90;;;8.70;;
64684;SDS011;51109;47.414;18.954;2023-05-07T01:40:58;12.55;;;9.20;;
64684;SDS011;51109;47.414;18.954;2023-05-07T01:43:24;13.07;;;9.60;;
64684;SDS011;51109;47.414;18.954;2023-05-07T01:45:50;13.70;;;10.77;;
64684;SDS011;51109;47.414;18.954;2023-05-07T01:48:17;14.77;;;12.65;;
64684;SDS011;51109;47.414;18.954;2023-05-07T01:50:44;16.80;;;13.48;;
64684;SDS011;51109;47.414;18.954;2023-05-07T01:53:10;21.73;;;17.05;;
64684;SDS011;51109;47.414;18.954;2023-05-07T01:55:36;19.92;;;15.55;;
64684;SDS011;51109;47.414;18.954;2023-05-07T01:58:05;19.38;;;15.13;;
64684;SDS011;51109;47.414;18.954;2023-05-07T02:00:31;21.80;;;15.98;;
64684;SDS011;51109;47.414;18.954;2023-05-07T02:02:57;19.20;;;15.25;;
64684;SDS011;51109;47.414;18.954;2023-05-07T02:05:23;18.27;;;14.57;;
64684;SDS011;51109;47.414;18.954;2023-05-07T02:07:50;16.38;;;13.00;;
64684;SDS011;51109;47.414;18.954;2023-05-07T02:10:15;15.27;;;12.77;;
64684;SDS011;51109;47.414;18.954;2023-05-07T02:12:41;17.85;;;12.85;;
64684;SDS011;51109;47.414;18.954;2023-05-07T02:15:07;16.95;;;13.27;;
64684;SDS011;51109;47.414;18.954;2023-05-07T02:17:34;17.55;;;13.60;;
64684;SDS011;51109;47.414;18.954;2023-05-07T02:20:00;18.00;;;13.90;;
64684;SDS011;51109;47.414;18.954;2023-05-07T02:22:26;18.05;;;14.95;;
64684;SDS011;51109;47.414;18.954;2023-05-07T02:24:54;20.77;;;16.20;;
64684;SDS011;51109;47.414;18.954;2023-05-07T02:27:20;20.95;;;16.35;;
64684;SDS011;51109;47.414;18.954;2023-05-07T02:29:46;25.05;;;17.85;;
64684;SDS011;51109;47.414;18.954;2023-05-07T02:32:11;22.10;;;16.70;;
64684;SDS011;51109;47.414;18.954;2023-05-07T02:34:37;19.75;;;14.77;;
64684;SDS011;51109;47.414;18.954;2023-05-07T02:37:03;16.88;;;14.35;;
64684;SDS011;51109;47.414;18.954;2023-05-07T02:39:29;19.10;;;13.90;;
64684;SDS011;51109;47.414;18.954;2023-05-07T02:41:55;16.02;;;12.93;;
64684;SDS011;51109;47.414;18.954;2023-05-07T02:44:21;16.45;;;13.25;;
64684;SDS011;51109;47.414;18.954;2023-05-07T02:46:46;15.85;;;14.07;;
64684;SDS011;51109;47.414;18.954;2023-05-07T02:49:12;15.50;;;13.23;;
64684;SDS011;51109;47.414;18.954;2023-05-07T02:51:38;18.38;;;13.18;;
64684;SDS011;51109;47.414;18.954;2023-05-07T02:54:04;15.00;;;12.55;;
64684;SDS011;51109;47.414;18.954;2023-05-07T02:56:30;15.90;;;11.77;;
64684;SDS011;51109;47.414;18.954;2023-05-07T02:58:56;15.05;;;11.90;;
64684;SDS011;51109;47.414;18.954;2023-05-07T03:01:22;15.48;;;11.73;;
64684;SDS011;51109;47.414;18.954;2023-05-07T03:03:48;14.93;;;12.35;;
64684;SDS011;51109;47.414;18.954;2023-05-07T03:06:14;18.35;;;13.18;;
64684;SDS011;51109;47.414;18.954;2023-05-07T03:08:40;21.27;;;15.23;;
64684;SDS011;51109;47.414;18.954;2023-05-07T03:11:06;18.73;;;15.43;;
64684;SDS011;51109;47.414;18.954;2023-05-07T03:13:32;18.83;;;15.27;;
64684;SDS011;51109;47.414;18.954;2023-05-07T03:15:58;19.83;;;14.18;;
64684;SDS011;51109;47.414;18.954;2023-05-07T03:18:24;16.20;;;12.00;;
64684;SDS011;51109;47.414;18.954;2023-05-07T03:20:51;11.88;;;10.45;;
64684;SDS011;51109;47.414;18.954;2023-05-07T03:23:17;14.00;;;11.38;;
64684;SDS011;51109;47.414;18.954;2023-05-07T03:25:43;19.27;;;13.38;;
64684;SDS011;51109;47.414;18.954;2023-05-07T03:28:09;17.08;;;13.55;;
64684;SDS011;51109;47.414;18.954;2023-05-07T03:30:35;16.20;;;12.63;;
64684;SDS011;51109;47.414;18.954;2023-05-07T03:33:01;16.08;;;12.02;;
64684;SDS011;51109;47.414;18.954;2023-05-07T03:35:27;14.25;;;12.13;;
64684;SDS011;51109;47.414;18.954;2023-05-07T03:37:53;13.57;;;11.55;;
64684;SDS011;51109;47.414;18.954;2023-05-07T03:40:19;13.88;;;10.55;;
64684;SDS011;51109;47.414;18.954;2023-05-07T03:42:45;15.73;;;12.00;;
64684;SDS011;51109;47.414;18.954;2023-05-07T03:45:11;12.40;;;10.73;;
64684;SDS011;51109;47.414;18.954;2023-05-07T03:47:36;12.15;;;10.70;;
64684;SDS011;51109;47.414;18.954;2023-05-07T03:50:02;13.05;;;10.23;;
64684;SDS011;51109;47.414;18.954;2023-05-07T03:52:29;13.70;;;9.70;;
64684;SDS011;51109;47.414;18.954;2023-05-07T03:54:55;12.88;;;9.98;;
64684;SDS011;51109;47.414;18.954;2023-05-07T03:57:20;10.80;;;9.18;;
64684;SDS011;51109;47.414;18.954;2023-05-07T03:59:46;12.43;;;9.45;;
64684;SDS011;51109;47.414;18.954;2023-05-07T04:02:12;11.73;;;9.50;;
64684;SDS011;51109;47.414;18.954;2023-05-07T04:04:39;13.02;;;9.25;;
64684;SDS011;51109;47.414;18.954;2023-05-07T04:07:04;12.02;;;8.93;;
64684;SDS011;51109;47.414;18.954;2023-05-07T04:09:30;8.82;;;7.78;;
64684;SDS011;51109;47.414;18.954;2023-05-07T04:11:56;9.68;;;8.20;;
64684;SDS011;51109;47.414;18.954;2023-05-07T04:14:22;10.43;;;9.25;;
64684;SDS011;51109;47.414;18.954;2023-05-07T04:16:48;10.50;;;9.38;;
64684;SDS011;51109;47.414;18.954;2023-05-07T04:19:14;10.07;;;8.35;;
64684;SDS011;51109;47.414;18.954;2023-05-07T04:21:40;10.50;;;8.18;;
64684;SDS011;51109;47.414;18.954;2023-05-07T04:24:06;9.00;;;8.07;;
64684;SDS011;51109;47.414;18.954;2023-05-07T04:26:32;10.50;;;8.85;;
64684;SDS011;51109;47.414;18.954;2023-05-07T04:28:58;11.95;;;8.40;;
64684;SDS011;51109;47.414;18.954;2023-05-07T04:31:25;9.68;;;7.90;;
64684;SDS011;51109;47.414;18.954;2023-05-07T04:33:51;12.75;;;8.63;;
64684;SDS011;51109;47.414;18.954;2023-05-07T04:36:17;6.50;;;5.90;;
64684;SDS011;51109;47.414;18.954;2023-05-07T04:38:43;6.07;;;5.47;;
64684;SDS011;51109;47.414;18.954;2023-05-07T04:41:17;7.13;;;6.43;;
64684;SDS011;51109;47.414;18.954;2023-05-07T04:43:43;7.00;;;6.40;;
64684;SDS011;51109;47.414;18.954;2023-05-07T04:46:09;7.40;;;6.50;;
64684;SDS011;51109;47.414;18.954;2023-05-07T04:48:35;6.95;;;6.22;;
64684;SDS011;51109;47.414;18.954;2023-05-07T04:51:01;8.02;;;6.93;;
64684;SDS011;51109;47.414;18.954;2023-05-07T04:53:27;7.75;;;6.90;;
64684;SDS011;51109;47.414;18.954;2023-05-07T04:55:56;8.23;;;6.70;;
64684;SDS011;51109;47.414;18.954;2023-05-07T04:58:23;7.60;;;6.38;;
64684;SDS011;51109;47.414;18.954;2023-05-07T05:00:49;6.93;;;6.22;;
64684;SDS011;51109;47.414;18.954;2023-05-07T05:03:15;7.00;;;6.30;;
64684;SDS011;51109;47.414;18.954;2023-05-07T05:05:41;6.97;;;6.22;;
64684;SDS011;51109;47.414;18.954;2023-05-07T05:08:07;6.90;;;6.20;;
64684;SDS011;51109;47.414;18.954;2023-05-07T05:10:33;6.10;;;5.50;;
64684;SDS011;51109;47.414;18.954;2023-05-07T05:12:59;6.53;;;5.93;;
64684;SDS011;51109;47.414;18.954;2023-05-07T05:15:24;5.95;;;5.35;;
64684;SDS011;51109;47.414;18.954;2023-05-07T05:17:51;6.22;;;5.45;;
64684;SDS011;51109;47.414;18.954;2023-05-07T05:20:16;6.72;;;6.03;;
64684;SDS011;51109;47.414;18.954;2023-05-07T05:22:43;7.72;;;6.65;;
64684;SDS011;51109;47.414;18.954;2023-05-07T05:25:08;6.40;;;5.72;;
64684;SDS011;51109;47.414;18.954;2023-05-07T05:27:34;7.18;;;6.40;;
64684;SDS011;51109;47.414;18.954;2023-05-07T05:30:01;8.10;;;6.75;;
64684;SDS011;51109;47.414;18.954;2023-05-07T05:32:27;7.00;;;6.25;;
64684;SDS011;51109;47.414;18.954;2023-05-07T05:34:53;8.10;;;5.72;;
64684;SDS011;51109;47.414;18.954;2023-05-07T05:37:19;6.68;;;6.07;;
64684;SDS011;51109;47.414;18.954;2023-05-07T05:39:45;6.70;;;6.10;;
64684;SDS011;51109;47.414;18.954;2023-05-07T05:42:10;7.72;;;5.70;;
64684;SDS011;51109;47.414;18.954;2023-05-07T05:44:36;7.65;;;5.78;;
64684;SDS011;51109;47.414;18.954;2023-05-07T05:47:02;14.55;;;5.60;;
64684;SDS011;51109;47.414;18.954;2023-05-07T05:49:28;6.25;;;5.50;;
64684;SDS011;51109;47.414;18.954;2023-05-07T05:51:54;6.30;;;5.70;;
64684;SDS011;51109;47.414;18.954;2023-05-07T05:54:21;6.78;;;5.80;;
64684;SDS011;51109;47.414;18.954;2023-05-07T05:56:47;7.43;;;6.35;;
64684;SDS011;51109;47.414;18.954;2023-05-07T05:59:13;6.85;;;6.18;;
64684;SDS011;51109;47.414;18.954;2023-05-07T06:01:39;7.65;;;5.75;;
64684;SDS011;51109;47.414;18.954;2023-05-07T06:04:05;5.47;;;4.97;;
64684;SDS011;51109;47.414;18.954;2023-05-07T06:06:31;7.55;;;5.60;;
64684;SDS011;51109;47.414;18.954;2023-05-07T06:08:57;6.45;;;5.85;;
64684;SDS011;51109;47.414;18.954;2023-05-07T06:11:23;5.03;;;3.55;;
64684;SDS011;51109;47.414;18.954;2023-05-07T06:13:50;3.50;;;3.20;;
64684;SDS011;51109;47.414;18.954;2023-05-07T06:16:16;4.75;;;4.18;;
64684;SDS011;51109;47.414;18.954;2023-05-07T06:18:42;3.67;;;3.20;;
64684;SDS011;51109;47.414;18.954;2023-05-07T06:21:07;6.00;;;4.63;;
64684;SDS011;51109;47.414;18.954;2023-05-07T06:23:35;5.97;;;4.30;;
64684;SDS011;51109;47.414;18.954;2023-05-07T06:26:01;4.88;;;3.22;;
64684;SDS011;51109;47.414;18.954;2023-05-07T06:28:27;3.17;;;2.88;;
64684;SDS011;51109;47.414;18.954;2023-05-07T06:30:53;5.30;;;2.90;;
64684;SDS011;51109;47.414;18.954;2023-05-07T06:33:18;4.15;;;3.10;;
64684;SDS011;51109;47.414;18.954;2023-05-07T06:35:44;3.83;;;3.53;;
64684;SDS011;51109;47.414;18.954;2023-05-07T06:38:10;4.15;;;3.33;;
64684;SDS011;51109;47.414;18.954;2023-05-07T06:40:37;5.15;;;4.65;;
64684;SDS011;51109;47.414;18.954;2023-05-07T06:43:03;10.00;;;5.60;;
64684;SDS011;51109;47.414;18.954;2023-05-07T06:45:29;5.18;;;4.32;;
64684;SDS011;51109;47.414;18.954;2023-05-07T06:47:55;4.38;;;3.97;;
64684;SDS011;51109;47.414;18.954;2023-05-07T06:50:20;3.88;;;3.35;;
64684;SDS011;51109;47.414;18.954;2023-05-07T06:52:46;4.00;;;3.70;;
64684;SDS011;51109;47.414;18.954;2023-05-07T06:55:12;4.60;;;4.03;;
64684;SDS011;51109;47.414;18.954;2023-05-07T06:57:38;6.47;;;5.50;;
64684;SDS011;51109;47.414;18.954;2023-05-07T07:00:04;6.32;;;5.72;;
64684;SDS011;51109;47.414;18.954;2023-05-07T07:02:34;6.47;;;5.88;;
64684;SDS011;51109;47.414;18.954;2023-05-07T07:05:00;6.57;;;5.90;;
64684;SDS011;51109;47.414;18.954;2023-05-07T07:07:25;7.80;;;6.22;;
64684;SDS011;51109;47.414;18.954;2023-05-07T07:09:51;6.55;;;5.65;;
64684;SDS011;51109;47.414;18.954;2023-05-07T07:12:17;6.47;;;5.88;;
64684;SDS011;51109;47.414;18.954;2023-05-07T07:14:43;6.63;;;5.93;;
64684;SDS011;51109;47.414;18.954;2023-05-07T07:17:09;6.43;;;5.65;;
64684;SDS011;51109;47.414;18.954;2023-05-07T07:19:35;7.25;;;6.53;;
64684;SDS011;51109;47.414;18.954;2023-05-07T07:22:01;6.43;;;5.78;;
64684;SDS011;51109;47.414;18.954;2023-05-07T07:24:27;7.20;;;5.72;;
64684;SDS011;51109;47.414;18.954;2023-05-07T07:26:53;6.40;;;5.68;;
64684;SDS011;51109;47.414;18.954;2023-05-07T07:29:20;8.95;;;6.70;;
64684;SDS011;51109;47.414;18.954;2023-05-07T07:31:47;8.57;;;7.75;;
64684;SDS011;51109;47.414;18.954;2023-05-07T07:34:14;8.45;;;7.22;;
64684;SDS011;51109;47.414;18.954;2023-05-07T07:36:40;8.00;;;7.20;;
64684;SDS011;51109;47.414;18.954;2023-05-07T07:39:06;9.27;;;7.57;;
64684;SDS011;51109;47.414;18.954;2023-05-07T07:41:32;10.57;;;7.78;;
64684;SDS011;51109;47.414;18.954;2023-05-07T07:43:58;9.88;;;8.40;;
64684;SDS011;51109;47.414;18.954;2023-05-07T07:46:24;11.02;;;8.30;;
64684;SDS011;51109;47.414;18.954;2023-05-07T07:48:51;9.85;;;8.48;;
64684;SDS011;51109;47.414;18.954;2023-05-07T07:51:17;10.13;;;8.88;;
64684;SDS011;51109;47.414;18.954;2023-05-07T07:53:43;10.65;;;8.75;;
64684;SDS011;51109;47.414;18.954;2023-05-07T07:56:09;9.50;;;8.60;;
64684;SDS011;51109;47.414;18.954;2023-05-07T07:58:35;8.73;;;7.78;;
64684;SDS011;51109;47.414;18.954;2023-05-07T08:01:03;8.27;;;7.47;;
64684;SDS011;51109;47.414;18.954;2023-05-07T08:03:29;7.00;;;6.13;;
64684;SDS011;51109;47.414;18.954;2023-05-07T08:05:57;6.97;;;6.28;;
64684;SDS011;51109;47.414;18.954;2023-05-07T08:08:23;9.20;;;7.60;;
64684;SDS011;51109;47.414;18.954;2023-05-07T08:10:49;11.38;;;8.73;;
64684;SDS011;51109;47.414;18.954;2023-05-07T08:13:16;11.43;;;9.15;;
64684;SDS011;51109;47.414;18.954;2023-05-07T08:15:42;19.25;;;10.18;;
64684;SDS011;51109;47.414;18.954;2023-05-07T08:18:08;11.48;;;9.48;;
64684;SDS011;51109;47.414;18.954;2023-05-07T08:20:35;12.48;;;8.70;;
64684;SDS011;51109;47.414;18.954;2023-05-07T08:23:05;11.57;;;9.98;;
64684;SDS011;51109;47.414;18.954;2023-05-07T08:25:33;11.13;;;9.52;;
64684;SDS011;51109;47.414;18.954;2023-05-07T08:28:00;12.23;;;10.13;;
64684;SDS011;51109;47.414;18.954;2023-05-07T08:30:26;13.95;;;10.00;;
64684;SDS011;51109;47.414;18.954;2023-05-07T08:32:52;11.63;;;10.43;;
64684;SDS011;51109;47.414;18.954;2023-05-07T08:35:18;11.60;;;10.40;;
64684;SDS011;51109;47.414;18.954;2023-05-07T08:37:44;11.20;;;10.10;;
64684;SDS011;51109;47.414;18.954;2023-05-07T08:40:10;12.40;;;10.52;;
64684;SDS011;51109;47.414;18.954;2023-05-07T08:42:36;13.63;;;10.32;;
64684;SDS011;51109;47.414;18.954;2023-05-07T08:45:04;10.45;;;9.43;;
64684;SDS011;51109;47.414;18.954;2023-05-07T08:47:35;12.45;;;10.70;;
64684;SDS011;51109;47.414;18.954;2023-05-07T08:50:18;11.23;;;9.70;;
64684;SDS011;51109;47.414;18.954;2023-05-07T08:52:45;11.73;;;10.10;;
64684;SDS011;51109;47.414;18.954;2023-05-07T08:55:12;11.90;;;10.65;;
64684;SDS011;51109;47.414;18.954;2023-05-07T08:57:38;10.90;;;9.80;;
64684;SDS011;51109;47.414;18.954;2023-05-07T09:00:04;10.48;;;9.20;;
64684;SDS011;51109;47.414;18.954;2023-05-07T09:02:32;9.60;;;8.07;;
64684;SDS011;51109;47.414;18.954;2023-05-07T09:05:00;11.75;;;9.18;;
64684;SDS011;51109;47.414;18.954;2023-05-07T09:07:26;11.13;;;9.02;;
64684;SDS011;51109;47.414;18.954;2023-05-07T09:09:52;8.27;;;7.43;;
64684;SDS011;51109;47.414;18.954;2023-05-07T09:12:21;11.70;;;7.97;;
64684;SDS011;51109;47.414;18.954;2023-05-07T09:14:47;9.15;;;8.02;;
64684;SDS011;51109;47.414;18.954;2023-05-07T09:17:13;7.63;;;6.88;;
64684;SDS011;51109;47.414;18.954;2023-05-07T09:19:40;8.70;;;6.93;;
64684;SDS011;51109;47.414;18.954;2023-05-07T09:22:06;8.10;;;7.30;;
64684;SDS011;51109;47.414;18.954;2023-05-07T09:24:32;7.88;;;6.45;;
64684;SDS011;51109;47.414;18.954;2023-05-07T09:27:01;6.07;;;5.47;;
64684;SDS011;51109;47.414;18.954;2023-05-07T09:29:28;5.93;;;5.32;;
64684;SDS011;51109;47.414;18.954;2023-05-07T09:31:55;6.93;;;4.95;;
64684;SDS011;51109;47.414;18.954;2023-05-07T09:34:21;6.50;;;5.80;;
64684;SDS011;51109;47.414;18.954;2023-05-07T09:36:48;6.75;;;6.10;;
64684;SDS011;51109;47.414;18.954;2023-05-07T09:39:14;9.52;;;5.07;;
64684;SDS011;51109;47.414;18.954;2023-05-07T09:41:43;5.72;;;4.57;;
64684;SDS011;51109;47.414;18.954;2023-05-07T09:44:13;4.87;;;4.47;;
64684;SDS011;51109;47.414;18.954;2023-05-07T09:46:42;6.22;;;4.75;;
64684;SDS011;51109;47.414;18.954;2023-05-07T09:49:16;5.47;;;4.28;;
64684;SDS011;51109;47.414;18.954;2023-05-07T09:51:51;4.93;;;4.43;;
64684;SDS011;51109;47.414;18.954;2023-05-07T09:54:18;5.35;;;4.75;;
64684;SDS011;51109;47.414;18.954;2023-05-07T09:56:44;7.05;;;6.22;;
64684;SDS011;51109;47.414;18.954;2023-05-07T09:59:14;7.97;;;6.00;;
64684;SDS011;51109;47.414;18.954;2023-05-07T10:01:41;5.28;;;4.78;;
64684;SDS011;51109;47.414;18.954;2023-05-07T10:04:09;5.50;;;4.70;;
64684;SDS011;51109;47.414;18.954;2023-05-07T10:06:36;5.93;;;5.35;;
64684;SDS011;51109;47.414;18.954;2023-05-07T10:09:03;7.47;;;6.70;;
64684;SDS011;51109;47.414;18.954;2023-05-07T10:11:33;6.95;;;6.25;;
64684;SDS011;51109;47.414;18.954;2023-05-07T10:14:03;7.90;;;7.18;;
64684;SDS011;51109;47.414;18.954;2023-05-07T10:16:33;9.38;;;6.05;;
64684;SDS011;51109;47.414;18.954;2023-05-07T10:19:04;7.97;;;6.75;;
64684;SDS011;51109;47.414;18.954;2023-05-07T10:21:32;9.93;;;8.15;;
64684;SDS011;51109;47.414;18.954;2023-05-07T10:27:09;9.88;;;7.90;;
64684;SDS011;51109;47.414;18.954;2023-05-07T10:29:55;10.30;;;7.93;;
64684;SDS011;51109;47.414;18.954;2023-05-07T10:32:48;9.57;;;8.57;;
64684;SDS011;51109;47.414;18.954;2023-05-07T10:35:17;11.38;;;8.13;;
64684;SDS011;51109;47.414;18.954;2023-05-07T10:37:49;8.63;;;7.68;;
64684;SDS011;51109;47.414;18.954;2023-05-07T10:40:16;8.75;;;7.90;;
64684;SDS011;51109;47.414;18.954;2023-05-07T10:45:28;8.32;;;7.45;;
64684;SDS011;51109;47.414;18.954;2023-05-07T10:48:13;5.13;;;4.70;;
64684;SDS011;51109;47.414;18.954;2023-05-07T10:50:43;6.07;;;5.40;;
64684;SDS011;51109;47.414;18.954;2023-05-07T10:55:43;5.68;;;4.60;;
64684;SDS011;51109;47.414;18.954;2023-05-07T10:58:30;5.40;;;4.90;;
64684;SDS011;51109;47.414;18.954;2023-05-07T11:00:57;8.65;;;5.30;;
64684;SDS011;51109;47.414;18.954;2023-05-07T11:03:24;6.25;;;4.78;;
64684;SDS011;51109;47.414;18.954;2023-05-07T11:11:17;5.88;;;4.80;;
64684;SDS011;51109;47.414;18.954;2023-05-07T11:13:45;6.15;;;5.65;;
64684;SDS011;51109;47.414;18.954;2023-05-07T11:16:22;7.35;;;4.97;;
64684;SDS011;51109;47.414;18.954;2023-05-07T11:18:53;5.07;;;3.92;;
64684;SDS011;51109;47.414;18.954;2023-05-07T11:24:00;3.47;;;3.17;;
64684;SDS011;51109;47.414;18.954;2023-05-07T11:26:27;3.58;;;3.28;;
64684;SDS011;51109;47.414;18.954;2023-05-07T11:28:54;6.35;;;3.25;;
64684;SDS011;51109;47.414;18.954;2023-05-07T11:31:22;3.33;;;2.95;;
64684;SDS011;51109;47.414;18.954;2023-05-07T11:33:50;3.15;;;2.78;;
64684;SDS011;51109;47.414;18.954;2023-05-07T11:36:16;3.88;;;2.53;;
64684;SDS011;51109;47.414;18.954;2023-05-07T11:38:44;5.47;;;2.95;;
64684;SDS011;51109;47.414;18.954;2023-05-07T11:41:10;4.30;;;2.70;;
64684;SDS011;51109;47.414;18.954;2023-05-07T11:43:36;3.03;;;2.80;;
64684;SDS011;51109;47.414;18.954;2023-05-07T11:46:07;3.35;;;2.60;;
64684;SDS011;51109;47.414;18.954;2023-05-07T11:48:38;3.00;;;2.63;;
64684;SDS011;51109;47.414;18.954;2023-05-07T11:51:05;3.10;;;2.80;;
64684;SDS011;51109;47.414;18.954;2023-05-07T11:53:35;4.93;;;2.88;;
64684;SDS011;51109;47.414;18.954;2023-05-07T11:58:35;3.72;;;3.33;;
64684;SDS011;51109;47.414;18.954;2023-05-07T12:01:02;3.25;;;2.97;;
64684;SDS011;51109;47.414;18.954;2023-05-07T12:03:28;4.10;;;3.13;;
64684;SDS011;51109;47.414;18.954;2023-05-07T12:05:54;3.72;;;3.38;;
64684;SDS011;51109;47.414;18.954;2023-05-07T12:08:20;3.63;;;3.33;;
64684;SDS011;51109;47.414;18.954;2023-05-07T12:10:49;3.72;;;3.15;;
64684;SDS011;51109;47.414;18.954;2023-05-07T12:13:20;3.33;;;3.03;;
64684;SDS011;51109;47.414;18.954;2023-05-07T12:15:50;7.25;;;3.90;;
64684;SDS011;51109;47.414;18.954;2023-05-07T12:18:20;12.05;;;10.30;;
64684;SDS011;51109;47.414;18.954;2023-05-07T12:20:47;3.50;;;3.22;;
64684;SDS011;51109;47.414;18.954;2023-05-07T12:23:14;4.15;;;2.60;;
64684;SDS011;51109;47.414;18.954;2023-05-07T12:25:40;3.55;;;2.95;;
64684;SDS011;51109;47.414;18.954;2023-05-07T12:28:14;3.53;;;2.70;;
64684;SDS011;51109;47.414;18.954;2023-05-07T12:30:42;3.35;;;3.05;;
64684;SDS011;51109;47.414;18.954;2023-05-07T12:33:10;3.25;;;2.95;;
64684;SDS011;51109;47.414;18.954;2023-05-07T12:35:37;3.42;;;3.13;;
64684;SDS011;51109;47.414;18.954;2023-05-07T12:38:11;3.83;;;2.70;;
64684;SDS011;51109;47.414;18.954;2023-05-07T12:40:42;3.08;;;2.78;;
64684;SDS011;51109;47.414;18.954;2023-05-07T12:43:16;3.42;;;3.08;;
64684;SDS011;51109;47.414;18.954;2023-05-07T12:45:43;3.90;;;3.50;;
64684;SDS011;51109;47.414;18.954;2023-05-07T12:48:10;3.28;;;2.97;;
64684;SDS011;51109;47.414;18.954;2023-05-07T12:50:36;3.47;;;3.17;;
64684;SDS011;51109;47.414;18.954;2023-05-07T12:53:06;2.90;;;2.70;;
64684;SDS011;51109;47.414;18.954;2023-05-07T12:55:43;5.90;;;4.18;;
64684;SDS011;51109;47.414;18.954;2023-05-07T13:00:47;3.35;;;3.05;;
64684;SDS011;51109;47.414;18.954;2023-05-07T13:03:21;4.53;;;2.85;;
64684;SDS011;51109;47.414;18.954;2023-05-07T13:05:57;2.78;;;2.53;;
64684;SDS011;51109;47.414;18.954;2023-05-07T13:10:51;4.10;;;3.05;;
64684;SDS011;51109;47.414;18.954;2023-05-07T13:13:17;5.75;;;2.80;;
64684;SDS011;51109;47.414;18.954;2023-05-07T13:15:43;3.10;;;2.90;;
64684;SDS011;51109;47.414;18.954;2023-05-07T13:18:09;4.75;;;2.63;;
64684;SDS011;51109;47.414;18.954;2023-05-07T13:20:36;2.72;;;2.50;;
64684;SDS011;51109;47.414;18.954;2023-05-07T13:23:02;2.60;;;2.40;;
64684;SDS011;51109;47.414;18.954;2023-05-07T13:25:29;3.60;;;2.95;;
64684;SDS011;51109;47.414;18.954;2023-05-07T13:27:59;3.10;;;2.80;;
64684;SDS011;51109;47.414;18.954;2023-05-07T13:30:25;3.28;;;2.97;;
64684;SDS011;51109;47.414;18.954;2023-05-07T13:32:53;4.90;;;3.20;;
64684;SDS011;51109;47.414;18.954;2023-05-07T13:35:20;5.32;;;3.70;;
64684;SDS011;51109;47.414;18.954;2023-05-07T13:37:46;3.42;;;3.13;;
64684;SDS011;51109;47.414;18.954;2023-05-07T13:40:14;3.40;;;3.10;;
64684;SDS011;51109;47.414;18.954;2023-05-07T13:42:40;3.15;;;2.85;;
64684;SDS011;51109;47.414;18.954;2023-05-07T13:45:06;3.33;;;3.03;;
64684;SDS011;51109;47.414;18.954;2023-05-07T13:47:33;5.82;;;3.25;;
64684;SDS011;51109;47.414;18.954;2023-05-07T13:49:59;4.18;;;2.72;;
64684;SDS011;51109;47.414;18.954;2023-05-07T13:52:25;3.45;;;3.17;;
64684;SDS011;51109;47.414;18.954;2023-05-07T13:54:51;3.70;;;3.40;;
64684;SDS011;51109;47.414;18.954;2023-05-07T13:57:18;4.05;;;3.28;;
64684;SDS011;51109;47.414;18.954;2023-05-07T13:59:44;3.80;;;3.50;;
64684;SDS011;51109;47.414;18.954;2023-05-07T14:02:10;4.07;;;3.67;;
64684;SDS011;51109;47.414;18.954;2023-05-07T14:04:37;3.80;;;3.45;;
64684;SDS011;51109;47.414;18.954;2023-05-07T14:07:03;7.50;;;3.85;;
64684;SDS011;51109;47.414;18.954;2023-05-07T14:09:29;3.67;;;3.33;;
64684;SDS011;51109;47.414;18.954;2023-05-07T14:11:55;8.07;;;3.95;;
64684;SDS011;51109;47.414;18.954;2023-05-07T14:14:20;5.10;;;3.53;;
64684;SDS011;51109;47.414;18.954;2023-05-07T14:16:46;3.50;;;3.20;;
64684;SDS011;51109;47.414;18.954;2023-05-07T14:19:12;4.95;;;3.90;;
64684;SDS011;51109;47.414;18.954;2023-05-07T14:21:38;3.47;;;3.08;;
64684;SDS011;51109;47.414;18.954;2023-05-07T14:24:06;3.88;;;3.53;;
64684;SDS011;51109;47.414;18.954;2023-05-07T14:26:33;4.18;;;3.53;;
64684;SDS011;51109;47.414;18.954;2023-05-07T14:28:59;4.57;;;3.33;;
64684;SDS011;51109;47.414;18.954;2023-05-07T14:31:25;4.03;;;3.70;;
64684;SDS011;51109;47.414;18.954;2023-05-07T14:33:51;4.85;;;3.70;;
64684;SDS011;51109;47.414;18.954;2023-05-07T14:43:40;4.10;;;3.65;;
64684;SDS011;51109;47.414;18.954;2023-05-07T14:46:06;4.47;;;3.75;;
64684;SDS011;51109;47.414;18.954;2023-05-07T14:48:32;3.92;;;3.53;;
64684;SDS011;51109;47.414;18.954;2023-05-07T14:50:57;4.43;;;3.95;;
64684;SDS011;51109;47.414;18.954;2023-05-07T14:53:23;7.32;;;4.10;;
64684;SDS011;51109;47.414;18.954;2023-05-07T14:55:49;4.00;;;3.63;;
64684;SDS011;51109;47.414;18.954;2023-05-07T14:58:15;6.35;;;3.50;;